createdAt,value
2022-09-23T00:02:18.205Z,52.77
2022-09-23T00:05:21.257Z,52.77
2022-09-23T00:08:24.019Z,52.98
2022-09-23T00:11:28.226Z,53.07
2022-09-23T00:14:31.048Z,53.15
2022-09-23T00:17:33.795Z,53.18
2022-09-23T00:20:36.753Z,53.20
2022-09-23T00:23:41.296Z,53.31
2022-09-23T00:26:44.127Z,53.28
2022-09-23T00:29:48.067Z,53.35
2022-09-23T00:32:53.152Z,53.42
2022-09-23T00:36:00.730Z,53.43
2022-09-23T00:39:04.700Z,53.55
2022-09-23T00:42:14.482Z,53.62
2022-09-23T00:45:18.278Z,53.63
2022-09-23T00:48:21.449Z,53.77
2022-09-23T00:51:27.820Z,53.73
2022-09-23T00:54:31.490Z,53.76
2022-09-23T00:57:37.327Z,53.82
2022-09-23T01:00:40.609Z,53.83
2022-09-23T01:03:46.272Z,53.94
2022-09-23T01:06:49.733Z,53.88
2022-09-23T01:09:53.104Z,53.99
2022-09-23T01:13:30.358Z,53.92
2022-09-23T01:17:11.578Z,54.00
2022-09-23T01:20:39.447Z,53.99
2022-09-23T01:24:16.403Z,53.94
2022-09-23T01:27:20.497Z,53.94
2022-09-23T01:30:44.385Z,54.07
2022-09-23T01:33:56.740Z,54.09
2022-09-23T01:37:23.298Z,54.16
2022-09-23T01:40:50.253Z,54.22
2022-09-23T01:44:09.803Z,54.25
2022-09-23T01:47:36.620Z,54.29
2022-09-23T01:50:58.932Z,54.29
2022-09-23T01:54:28.930Z,54.35
2022-09-23T01:57:38.036Z,54.31
2022-09-23T02:00:50.481Z,54.33
2022-09-23T02:04:04.394Z,54.25
2022-09-23T02:07:15.315Z,54.11
2022-09-23T02:10:44.406Z,54.07
2022-09-23T02:13:54.501Z,54.20
2022-09-23T02:17:03.512Z,54.10
2022-09-23T02:20:08.239Z,54.17
2022-09-23T02:23:17.129Z,54.13
2022-09-23T02:26:37.768Z,54.16
2022-09-23T02:30:21.300Z,54.24
2022-09-23T02:33:35.281Z,54.17
2022-09-23T02:36:47.357Z,54.28
2022-09-23T02:40:23.835Z,54.22
2022-09-23T02:43:42.050Z,54.38
2022-09-23T02:46:45.358Z,54.32
2022-09-23T02:49:48.269Z,54.27
2022-09-23T02:52:51.114Z,54.27
2022-09-23T02:55:54.090Z,54.14
2022-09-23T02:58:57.252Z,54.29
2022-09-23T03:02:15.830Z,54.27
2022-09-23T03:05:25.045Z,54.30
2022-09-23T03:08:45.663Z,54.31
2022-09-23T03:11:57.167Z,54.39
2022-09-23T03:15:19.498Z,54.33
2022-09-23T03:18:31.831Z,54.41
2022-09-23T03:21:41.392Z,54.62
2022-09-23T03:24:50.671Z,54.57
2022-09-23T03:27:58.577Z,54.47
2022-09-23T03:31:01.708Z,54.59
2022-09-23T03:34:18.621Z,54.61
2022-09-23T03:37:51.402Z,54.69
2022-09-23T03:40:57.044Z,54.66
2022-09-23T03:44:00.463Z,54.86
2022-09-23T03:47:03.930Z,54.78
2022-09-23T03:50:07.195Z,54.87
2022-09-23T03:53:11.269Z,54.91
2022-09-23T03:56:42.385Z,54.88
2022-09-23T03:59:45.681Z,55.01
2022-09-23T04:02:49.942Z,55.14
2022-09-23T04:05:52.935Z,55.12
2022-09-23T04:08:56.143Z,55.23
2022-09-23T04:11:59.181Z,55.16
2022-09-23T04:15:02.594Z,55.24
2022-09-23T04:18:05.649Z,55.34
2022-09-23T04:21:08.624Z,55.42
2022-09-23T04:24:12.462Z,55.49
2022-09-23T04:27:15.459Z,55.55
2022-09-23T04:30:19.170Z,55.53
2022-09-23T04:33:22.233Z,55.66
2022-09-23T04:36:25.986Z,55.69
2022-09-23T04:39:28.936Z,55.68
2022-09-23T04:42:32.042Z,55.71
2022-09-23T04:45:35.131Z,55.79
2022-09-23T04:48:39.466Z,55.86
2022-09-23T04:51:43.852Z,55.81
2022-09-23T04:54:47.262Z,55.91
2022-09-23T04:57:50.302Z,55.89
2022-09-23T05:00:53.306Z,55.89
2022-09-23T05:04:02.762Z,55.96
2022-09-23T05:07:05.830Z,55.96
2022-09-23T05:10:09.254Z,55.93
2022-09-23T05:13:12.182Z,55.89
2022-09-23T05:16:15.904Z,55.82
2022-09-23T05:19:19.021Z,55.95
2022-09-23T05:22:22.158Z,55.88
2022-09-23T05:25:25.241Z,55.80
2022-09-23T05:28:33.014Z,55.88
2022-09-23T05:31:37.114Z,55.87
2022-09-23T05:34:40.306Z,55.99
2022-09-23T05:37:43.596Z,55.88
2022-09-23T05:40:46.584Z,56.01
2022-09-23T05:43:51.883Z,56.06
2022-09-23T05:46:55.063Z,55.96
2022-09-23T05:50:00.476Z,55.99
2022-09-23T05:53:04.046Z,56.01
2022-09-23T05:56:07.787Z,56.06
2022-09-23T05:59:11.591Z,56.11
2022-09-23T06:02:15.383Z,56.17
2022-09-23T06:05:18.547Z,56.15
2022-09-23T06:08:23.309Z,56.23
2022-09-23T06:11:27.170Z,56.26
2022-09-23T06:14:30.578Z,56.27
2022-09-23T06:17:33.774Z,56.35
2022-09-23T06:20:37.608Z,56.38
2022-09-23T06:23:42.044Z,56.47
2022-09-23T06:26:45.319Z,56.50
2022-09-23T06:29:50.322Z,56.50
2022-09-23T06:32:56.328Z,56.61
2022-09-23T06:36:05.604Z,56.65
2022-09-23T06:39:08.658Z,56.83
2022-09-23T06:42:11.662Z,56.83
2022-09-23T06:45:16.290Z,57.04
2022-09-23T06:48:19.337Z,57.08
2022-09-23T06:51:22.324Z,57.09
2022-09-23T06:54:28.469Z,57.11
2022-09-23T06:57:33.370Z,57.26
2022-09-23T07:00:37.472Z,57.41
2022-09-23T07:03:40.537Z,57.71
2022-09-23T07:06:43.510Z,57.81
2022-09-23T07:09:47.511Z,58.00
2022-09-23T07:12:50.616Z,57.94
2022-09-23T07:15:56.456Z,58.00
2022-09-23T07:18:59.726Z,58.01
2022-09-23T07:22:02.807Z,58.11
2022-09-23T07:25:06.473Z,58.22
2022-09-23T07:28:10.676Z,58.22
2022-09-23T07:31:22.992Z,58.16
2022-09-23T07:34:32.597Z,58.41
2022-09-23T07:37:36.333Z,58.25
2022-09-23T07:40:40.094Z,58.30
2022-09-23T07:43:44.309Z,58.21
2022-09-23T07:47:02.066Z,58.26
2022-09-23T07:50:07.840Z,58.37
2022-09-23T07:53:10.863Z,58.21
2022-09-23T07:56:14.208Z,58.30
2022-09-23T07:59:18.787Z,58.41
2022-09-23T08:02:30.094Z,58.30
2022-09-23T08:05:33.220Z,58.35
2022-09-23T08:08:40.633Z,58.42
2022-09-23T08:11:44.548Z,58.30
2022-09-23T08:14:48.706Z,58.36
2022-09-23T08:17:51.635Z,58.37
2022-09-23T08:20:54.737Z,58.48
2022-09-23T08:24:01.065Z,58.31
2022-09-23T08:27:04.288Z,58.20
2022-09-23T08:30:07.976Z,57.99
2022-09-23T08:33:13.128Z,58.00
2022-09-23T08:36:16.198Z,58.14
2022-09-23T08:39:20.641Z,58.14
2022-09-23T08:42:32.758Z,57.92
2022-09-23T08:45:38.008Z,57.83
2022-09-23T08:48:47.415Z,58.02
2022-09-23T08:51:55.062Z,57.58
2022-09-23T08:54:58.613Z,57.73
2022-09-23T08:58:39.217Z,57.59
2022-09-23T09:01:58.202Z,57.45
2022-09-23T09:05:07.558Z,57.61
2022-09-23T09:08:12.825Z,57.49
2022-09-23T09:11:18.398Z,57.36
2022-09-23T09:14:36.179Z,57.25
2022-09-23T09:17:47.224Z,57.50
2022-09-23T09:20:57.566Z,57.64
2022-09-23T09:24:03.508Z,57.72
2022-09-23T09:27:13.998Z,57.90
2022-09-23T09:30:18.912Z,57.94
2022-09-23T09:33:28.551Z,57.90
2022-09-23T09:36:52.029Z,57.96
2022-09-23T09:39:56.427Z,58.29
2022-09-23T09:42:59.400Z,58.47
2022-09-23T09:46:37.739Z,58.58
2022-09-23T09:50:04.096Z,58.67
2022-09-23T09:53:26.753Z,58.52
2022-09-23T09:56:36.380Z,58.48
2022-09-23T09:59:44.376Z,58.56
2022-09-23T10:02:53.305Z,58.79
2022-09-23T10:05:57.678Z,58.78
2022-09-23T10:09:12.416Z,58.72
2022-09-23T10:12:25.315Z,58.21
2022-09-23T10:15:34.983Z,58.17
2022-09-23T10:18:48.547Z,58.01
2022-09-23T10:21:57.155Z,57.13
2022-09-23T10:25:10.894Z,57.38
2022-09-23T10:28:46.177Z,57.44
2022-09-23T10:31:52.741Z,57.17
2022-09-23T10:35:15.047Z,57.27
2022-09-23T10:38:18.220Z,56.44
2022-09-23T10:42:02.464Z,56.96
2022-09-23T10:45:52.727Z,56.64
2022-09-23T10:49:18.080Z,56.55
2022-09-23T10:53:03.924Z,56.76
2022-09-23T10:56:22.247Z,56.22
2022-09-23T10:59:35.863Z,56.36
2022-09-23T11:03:09.066Z,56.39
2022-09-23T11:06:30.830Z,55.26
2022-09-23T11:09:45.880Z,54.85
2022-09-23T11:12:55.198Z,54.98
2022-09-23T11:16:20.320Z,55.04
2022-09-23T11:19:51.601Z,54.54
2022-09-23T11:23:13.409Z,54.30
2022-09-23T11:26:19.855Z,54.33
2022-09-23T11:29:34.323Z,53.80
2022-09-23T11:33:14.538Z,53.50
2022-09-23T11:36:27.208Z,53.54
2022-09-23T11:39:55.860Z,53.35
2022-09-23T11:43:23.709Z,53.58
2022-09-23T11:46:56.455Z,52.59
2022-09-23T11:50:07.758Z,52.57
2022-09-23T11:53:25.593Z,53.11
2022-09-23T11:56:39.232Z,52.68
2022-09-23T11:59:56.953Z,53.15
2022-09-23T12:03:25.325Z,52.85
2022-09-23T12:06:42.601Z,52.72
2022-09-23T12:13:45.345Z,51.14
2022-09-23T12:17:03.744Z,51.68
2022-09-23T12:20:36.033Z,50.84
2022-09-23T12:24:00.070Z,51.61
2022-09-23T12:27:16.204Z,50.12
2022-09-23T12:30:27.223Z,51.25
2022-09-23T12:33:38.036Z,51.18
2022-09-23T12:36:46.079Z,50.28
2022-09-23T12:40:03.333Z,50.99
2022-09-23T12:43:39.706Z,50.38
2022-09-23T12:46:50.646Z,50.92
2022-09-23T12:49:58.223Z,51.36
2022-09-23T12:53:33.871Z,50.92
2022-09-23T12:56:36.843Z,50.67
2022-09-23T12:59:52.483Z,50.83
2022-09-23T13:03:16.015Z,50.55
2022-09-23T13:06:54.715Z,51.00
2022-09-23T13:10:09.292Z,51.30
2022-09-23T13:13:22.242Z,50.42
2022-09-23T13:16:52.573Z,50.55
2022-09-23T13:20:21.474Z,50.63
2022-09-23T13:23:31.443Z,50.55
2022-09-23T13:26:36.776Z,50.45
2022-09-23T13:30:22.348Z,50.37
2022-09-23T13:33:40.796Z,49.68
2022-09-23T13:36:51.455Z,49.79
2022-09-23T13:40:12.845Z,49.72
2022-09-23T13:43:24.769Z,48.32
2022-09-23T13:46:36.016Z,48.98
2022-09-23T13:49:44.938Z,49.06
2022-09-23T13:52:57.190Z,49.51
2022-09-23T13:56:25.494Z,49.57
2022-09-23T13:59:42.720Z,49.65
2022-09-23T14:02:48.962Z,49.60
2022-09-23T14:05:54.302Z,49.67
2022-09-23T14:09:00.329Z,48.92
2022-09-23T14:12:07.018Z,48.54
2022-09-23T14:15:15.596Z,48.57
2022-09-23T14:18:27.875Z,48.61
2022-09-23T14:21:35.478Z,48.83
2022-09-23T14:24:39.448Z,49.06
2022-09-23T14:27:44.996Z,49.02
2022-09-23T14:30:51.640Z,48.93
2022-09-23T14:33:55.445Z,49.37
2022-09-23T14:37:27.772Z,49.17
2022-09-23T14:41:17.474Z,49.54
2022-09-23T14:44:26.626Z,48.92
2022-09-23T14:47:31.562Z,49.07
2022-09-23T14:50:47.817Z,48.79
2022-09-23T14:53:50.893Z,49.13
2022-09-23T14:56:55.008Z,49.05
2022-09-23T15:00:14.748Z,49.12
2022-09-23T15:03:18.910Z,48.92
2022-09-23T15:06:23.857Z,49.10
2022-09-23T15:09:31.746Z,49.15
2022-09-23T15:12:36.843Z,49.07
2022-09-23T15:15:42.382Z,49.11
2022-09-23T15:18:46.376Z,49.13
2022-09-23T15:21:54.078Z,49.26
2022-09-23T15:25:28.356Z,49.30
2022-09-23T15:28:31.331Z,49.42
2022-09-23T15:31:34.383Z,49.38
2022-09-23T15:34:37.580Z,49.44
2022-09-23T15:37:40.656Z,49.31
2022-09-23T15:40:44.189Z,49.04
2022-09-23T15:43:47.624Z,49.10
2022-09-23T15:46:52.386Z,49.13
2022-09-23T15:49:55.825Z,49.17
2022-09-23T15:52:59.816Z,49.21
2022-09-23T15:56:03.296Z,49.21
2022-09-23T15:59:06.546Z,49.25
2022-09-23T16:02:21.458Z,49.22
2022-09-23T16:05:33.626Z,49.24
2022-09-23T16:08:36.682Z,49.45
2022-09-23T16:11:44.061Z,49.45
2022-09-23T16:14:47.007Z,49.54
2022-09-23T16:17:52.519Z,49.60
2022-09-23T16:20:55.797Z,49.68
2022-09-23T16:23:59.506Z,49.70
2022-09-23T16:27:07.909Z,49.84
2022-09-23T16:30:11.773Z,49.91
2022-09-23T16:33:14.853Z,50.11
2022-09-23T16:36:24.409Z,50.07
2022-09-23T16:39:27.458Z,50.12
2022-09-23T16:42:30.564Z,50.22
2022-09-23T16:45:33.683Z,50.37
2022-09-23T16:48:40.807Z,50.47
2022-09-23T16:51:43.983Z,50.48
2022-09-23T16:54:48.794Z,50.62
2022-09-23T16:57:52.891Z,50.54
2022-09-23T17:01:18.516Z,50.78
2022-09-23T17:04:22.986Z,50.88
2022-09-23T17:07:26.574Z,50.91
2022-09-23T17:10:31.080Z,51.02
2022-09-23T17:13:35.083Z,51.06
2022-09-23T17:16:40.202Z,51.20
2022-09-23T17:19:45.320Z,51.32
2022-09-23T17:22:48.494Z,51.43
2022-09-23T17:25:51.429Z,51.60
2022-09-23T17:28:56.693Z,51.61
2022-09-23T17:31:59.813Z,51.80
2022-09-23T17:35:04.991Z,51.85
2022-09-23T17:38:08.166Z,51.85
2022-09-23T17:41:12.808Z,52.00
2022-09-23T17:44:17.910Z,52.04
2022-09-23T17:47:21.179Z,52.14
2022-09-23T17:50:24.356Z,52.22
2022-09-23T17:53:30.389Z,52.28
2022-09-23T17:56:34.084Z,52.31
2022-09-23T17:59:38.487Z,52.49
2022-09-23T18:02:41.561Z,52.53
2022-09-23T18:05:44.638Z,52.53
2022-09-23T18:08:50.479Z,52.56
2022-09-23T18:11:53.650Z,52.65
2022-09-23T18:14:57.138Z,52.69
2022-09-23T18:18:00.106Z,52.73
2022-09-23T18:21:04.716Z,52.80
2022-09-23T18:27:34.790Z,52.87
2022-09-23T18:30:37.990Z,52.97
2022-09-23T18:33:41.354Z,53.04
2022-09-23T18:36:45.067Z,53.13
2022-09-23T18:39:50.171Z,53.16
2022-09-23T18:42:53.169Z,53.30
2022-09-23T18:46:04.750Z,53.49
2022-09-23T18:49:27.598Z,53.57
2022-09-23T18:52:30.580Z,53.77
2022-09-23T18:55:35.569Z,53.86
2022-09-23T18:58:39.129Z,53.90
2022-09-23T19:01:43.187Z,53.97
2022-09-23T19:04:46.256Z,54.01
2022-09-23T19:07:49.336Z,54.04
2022-09-23T19:10:57.126Z,54.06
2022-09-23T19:14:02.133Z,54.02
2022-09-23T19:17:05.434Z,54.09
2022-09-23T19:20:10.406Z,54.12
2022-09-23T19:23:16.075Z,54.22
2022-09-23T19:26:22.224Z,54.21
2022-09-23T19:29:25.450Z,54.18
2022-09-23T19:32:28.502Z,54.24
2022-09-23T19:35:34.932Z,54.32
2022-09-23T19:38:39.206Z,54.28
2022-09-23T19:41:42.319Z,54.32
2022-09-23T19:44:45.391Z,54.31
2022-09-23T19:47:53.948Z,54.36
2022-09-23T19:50:56.860Z,54.36
2022-09-23T19:54:03.649Z,54.39
2022-09-23T19:57:06.716Z,54.42
2022-09-23T20:00:10.411Z,54.30
2022-09-23T20:03:13.567Z,54.21
2022-09-23T20:06:18.116Z,54.20
2022-09-23T20:09:21.468Z,54.15
2022-09-23T20:12:24.396Z,54.15
2022-09-23T20:15:28.434Z,54.18
2022-09-23T20:18:31.470Z,54.12
2022-09-23T20:21:35.561Z,54.10
2022-09-23T20:24:39.949Z,54.20
2022-09-23T20:27:43.891Z,54.13
2022-09-23T20:30:47.013Z,54.10
2022-09-23T20:34:00.578Z,54.15
2022-09-23T20:37:05.832Z,54.10
2022-09-23T20:40:10.431Z,54.25
2022-09-23T20:43:16.321Z,54.36
2022-09-23T20:46:19.473Z,54.22
2022-09-23T20:49:22.821Z,54.34
2022-09-23T20:52:26.019Z,54.44
2022-09-23T20:55:29.896Z,54.40
2022-09-23T20:58:37.978Z,54.49
2022-09-23T21:01:41.735Z,54.54
2022-09-23T21:04:44.832Z,54.55
2022-09-23T21:07:49.830Z,54.68
2022-09-23T21:10:58.362Z,54.78
2022-09-23T21:14:02.264Z,54.85
2022-09-23T21:17:05.270Z,54.98
2022-09-23T21:20:09.068Z,54.86
2022-09-23T21:23:12.229Z,54.83
2022-09-23T21:26:19.431Z,54.74
2022-09-23T21:29:22.486Z,54.81
2022-09-23T21:32:25.545Z,54.82
2022-09-23T21:35:28.766Z,54.76
2022-09-23T21:38:35.844Z,54.73
2022-09-23T21:41:40.153Z,54.49
2022-09-23T21:44:43.350Z,54.72
2022-09-23T21:47:46.477Z,54.67
2022-09-23T21:51:01.152Z,54.64
2022-09-23T21:54:05.816Z,54.61
2022-09-23T21:57:09.012Z,54.58
2022-09-23T22:00:12.523Z,54.72
2022-09-23T22:03:15.588Z,54.59
2022-09-23T22:06:21.975Z,54.79
2022-09-23T22:09:25.214Z,54.82
2022-09-23T22:12:28.256Z,54.90
2022-09-23T22:15:35.899Z,54.99
2022-09-23T22:18:39.009Z,55.13
2022-09-23T22:21:44.392Z,55.28
2022-09-23T22:24:47.779Z,55.28
2022-09-23T22:28:09.511Z,55.46
2022-09-23T22:31:31.348Z,55.44
2022-09-23T22:34:51.882Z,55.54
2022-09-23T22:37:55.078Z,55.54
2022-09-23T22:40:58.887Z,55.69
2022-09-23T22:44:04.307Z,55.52
2022-09-23T22:47:08.232Z,55.49
2022-09-23T22:50:14.192Z,55.51
2022-09-23T22:53:17.201Z,55.51
2022-09-23T22:56:20.958Z,55.51
2022-09-23T22:59:24.235Z,55.52
2022-09-23T23:02:27.829Z,55.63
2022-09-23T23:05:31.678Z,55.51
2022-09-23T23:08:36.074Z,55.47
2022-09-23T23:11:42.319Z,55.28
2022-09-23T23:14:45.917Z,55.23
2022-09-23T23:17:49.015Z,55.24
2022-09-23T23:20:52.165Z,55.07
2022-09-23T23:23:55.281Z,55.16
2022-09-23T23:26:59.604Z,54.97
2022-09-23T23:30:02.720Z,55.03
2022-09-23T23:33:05.824Z,55.05
2022-09-23T23:36:09.973Z,55.03
2022-09-23T23:39:14.456Z,54.95
2022-09-23T23:42:17.836Z,55.07
2022-09-23T23:45:20.937Z,54.98
2022-09-23T23:48:24.200Z,55.06
2022-09-23T23:51:27.949Z,54.97
2022-09-23T23:54:32.407Z,54.92
2022-09-23T23:57:35.536Z,54.91
